Time,TemperatureF,DewpointF,PressureIn,WindDirection,WindDirectionDegrees,WindSpeedMPH,WindSpeedGustMPH,Humidity,HourlyPrecipIn,Conditions,Clouds,dailyrainin,SolarRadiationWatts/m^2,SoftwareType,DateUTC
2013-11-20 00:01:00,47.0,22.0,-100.00,SW,221,8.0,21.0,37,0.00,,,0.00,0.000000,,2013-11-20 07:01:00,
2013-11-20 00:11:00,47.0,22.0,-100.00,SW,221,8.0,21.0,37,0.00,,,0.00,0.000000,,2013-11-20 07:11:00,
2013-11-20 00:21:00,47.0,22.0,-100.00,SW,221,8.0,21.0,37,0.00,,,0.00,0.000000,,2013-11-20 07:21:00,
2013-11-20 00:52:00,43.0,21.0,-100.00,NW,308,2.0,10.0,41,0.00,,,-99.99,0.000000,,2013-11-20 07:52:00,
2013-11-20 01:02:00,43.0,21.0,-100.00,NW,308,2.0,10.0,41,0.00,,,-99.99,0.000000,,2013-11-20 08:02:00,
2013-11-20 01:12:00,43.0,21.0,-100.00,NW,308,2.0,10.0,41,0.00,,,-99.99,0.000000,,2013-11-20 08:12:00,
2013-11-20 01:21:00,43.0,21.0,-100.00,NW,308,2.0,10.0,41,0.00,,,-99.99,0.000000,,2013-11-20 08:21:00,
2013-11-20 01:52:00,45.0,23.0,-100.00,SW,218,3.0,8.0,41,0.00,,,0.00,0.000000,,2013-11-20 08:52:00,
2013-11-20 02:02:00,45.0,23.0,-100.00,SW,218,3.0,8.0,41,0.00,,,0.00,0.000000,,2013-11-20 09:02:00,
2013-11-20 02:12:00,45.0,23.0,-100.00,SW,218,3.0,8.0,41,0.00,,,0.00,0.000000,,2013-11-20 09:12:00,
2013-11-20 02:21:00,45.0,23.0,-100.00,SW,218,3.0,8.0,41,0.00,,,0.00,0.000000,,2013-11-20 09:21:00,
2013-11-20 02:22:00,42.0,23.0,-100.00,WSW,237,5.0,9.0,46,0.00,,,0.00,0.000000,,2013-11-20 09:22:00,
2013-11-20 02:54:00,42.0,23.0,-100.00,WSW,237,5.0,9.0,46,0.00,,,0.00,0.000000,,2013-11-20 09:54:00,
2013-11-20 03:03:00,42.0,23.0,-100.00,WSW,237,5.0,9.0,46,0.00,,,0.00,0.000000,,2013-11-20 10:03:00,
2013-11-20 03:12:00,42.0,23.0,-100.00,WSW,237,5.0,9.0,46,0.00,,,0.00,0.000000,,2013-11-20 10:12:00,
2013-11-20 03:22:00,43.0,23.0,-100.00,WNW,283,4.0,14.0,45,0.00,,,0.00,0.000000,,2013-11-20 10:22:00,
2013-11-20 03:53:00,43.0,23.0,-100.00,WNW,283,4.0,14.0,45,0.00,,,0.00,0.000000,,2013-11-20 10:53:00,
2013-11-20 04:02:00,43.0,23.0,-100.00,WNW,283,4.0,14.0,45,0.00,,,0.00,0.000000,,2013-11-20 11:02:00,
2013-11-20 04:12:00,43.0,23.0,-100.00,WNW,283,4.0,14.0,45,0.00,,,0.00,0.000000,,2013-11-20 11:12:00,
2013-11-20 05:21:00,24.0,18.0,-100.00,NNE,19,7.0,11.0,77,-99.99,,,0.00,0.000000,,2013-11-20 12:21:00,
2013-11-20 06:21:00,19.0,16.0,-100.00,North,0,6.0,10.0,86,0.00,,,0.00,0.000000,,2013-11-20 13:21:00,
2013-11-20 06:22:00,18.0,15.0,-100.00,NE,38,5.0,11.0,89,0.00,,,0.00,0.000000,,2013-11-20 13:22:00,
2013-11-20 06:52:00,18.0,15.0,-100.00,NE,38,5.0,11.0,89,0.00,,,0.00,0.000000,,2013-11-20 13:52:00,
2013-11-20 07:02:00,18.0,15.0,-100.00,NE,38,5.0,11.0,89,0.00,,,0.00,0.000000,,2013-11-20 14:02:00,
2013-11-20 07:11:00,18.0,15.0,-100.00,NE,38,5.0,11.0,89,0.00,,,0.00,0.000000,,2013-11-20 14:11:00,
2013-11-20 07:52:00,18.0,16.0,-100.00,NE,46,4.0,8.0,90,0.00,,,0.00,0.000000,,2013-11-20 14:52:00,
2013-11-20 08:02:00,18.0,16.0,-100.00,NE,46,4.0,8.0,90,0.00,,,0.00,0.000000,,2013-11-20 15:02:00,
2013-11-20 08:11:00,18.0,16.0,-100.00,NE,46,4.0,8.0,90,0.00,,,0.00,0.000000,,2013-11-20 15:11:00,
2013-11-20 08:21:00,18.0,16.0,-100.00,NE,46,4.0,8.0,90,0.00,,,0.00,0.000000,,2013-11-20 15:21:00,
2013-11-20 08:22:00,18.0,16.0,-100.00,NNE,26,6.0,15.0,90,0.00,,,0.00,5.000000,,2013-11-20 15:22:00,
2013-11-20 08:53:00,18.0,16.0,-100.00,NNE,26,6.0,15.0,90,0.00,,,0.00,5.000000,,2013-11-20 15:53:00,
2013-11-20 09:03:00,18.0,16.0,-100.00,NNE,26,6.0,15.0,90,0.00,,,0.00,5.000000,,2013-11-20 16:03:00,
2013-11-20 09:12:00,18.0,16.0,-100.00,NNE,26,6.0,15.0,90,0.00,,,0.00,5.000000,,2013-11-20 16:12:00,
2013-11-20 09:22:00,18.0,15.0,-100.00,NNE,28,6.0,11.0,89,0.00,,,0.00,61.000000,,2013-11-20 16:22:00,
2013-11-20 09:52:00,18.0,15.0,-100.00,NNE,28,6.0,11.0,89,0.00,,,0.00,61.000000,,2013-11-20 16:52:00,
2013-11-20 10:02:00,18.0,15.0,-100.00,NNE,28,6.0,11.0,89,0.00,,,0.00,61.000000,,2013-11-20 17:02:00,
2013-11-20 10:12:00,18.0,15.0,-100.00,NNE,28,6.0,11.0,89,0.00,,,0.00,61.000000,,2013-11-20 17:12:00,
2013-11-20 10:52:00,18.0,15.0,-100.00,NE,45,5.0,12.0,87,0.00,,,0.00,90.000000,,2013-11-20 17:52:00,
2013-11-20 11:01:00,18.0,15.0,-100.00,NE,45,5.0,12.0,87,0.00,,,0.00,90.000000,,2013-11-20 18:01:00,
2013-11-20 11:12:00,18.0,15.0,-100.00,NE,45,5.0,12.0,87,0.00,,,0.00,90.000000,,2013-11-20 18:12:00,
2013-11-20 11:21:00,18.0,15.0,-100.00,NE,45,5.0,12.0,87,0.00,,,0.00,90.000000,,2013-11-20 18:21:00,
2013-11-20 11:52:00,17.0,14.0,-100.00,NE,38,8.0,13.0,88,0.00,,,0.00,74.000000,,2013-11-20 18:52:00,
2013-11-20 12:02:00,17.0,14.0,-100.00,NE,38,8.0,13.0,88,0.00,,,0.00,74.000000,,2013-11-20 19:02:00,
2013-11-20 12:11:00,17.0,14.0,-100.00,NE,38,8.0,13.0,88,0.00,,,0.00,74.000000,,2013-11-20 19:11:00,
2013-11-20 12:21:00,17.0,14.0,-100.00,NE,38,8.0,13.0,88,0.00,,,0.00,74.000000,,2013-11-20 19:21:00,
2013-11-20 12:52:00,15.0,12.0,-100.00,NE,39,6.0,15.0,86,0.00,,,0.00,156.000000,,2013-11-20 19:52:00,
2013-11-20 13:01:00,15.0,12.0,-100.00,NE,39,6.0,15.0,86,0.00,,,0.00,156.000000,,2013-11-20 20:01:00,
2013-11-20 13:11:00,15.0,12.0,-100.00,NE,39,6.0,15.0,86,0.00,,,0.00,156.000000,,2013-11-20 20:11:00,
2013-11-20 13:21:00,15.0,12.0,-100.00,NE,39,6.0,15.0,86,0.00,,,0.00,156.000000,,2013-11-20 20:21:00,
2013-11-20 13:52:00,14.0,10.0,-100.00,ENE,64,4.0,10.0,84,0.00,,,0.00,179.000000,,2013-11-20 20:52:00,
2013-11-20 14:02:00,14.0,10.0,-100.00,ENE,64,4.0,10.0,84,0.00,,,0.00,179.000000,,2013-11-20 21:02:00,
2013-11-20 14:11:00,14.0,10.0,-100.00,ENE,64,4.0,10.0,84,0.00,,,0.00,179.000000,,2013-11-20 21:11:00,
2013-11-20 14:21:00,14.0,10.0,-100.00,ENE,64,4.0,10.0,84,0.00,,,0.00,179.000000,,2013-11-20 21:21:00,
2013-11-20 14:22:00,15.0,11.0,-100.00,NE,39,4.0,7.0,82,0.00,,,0.00,205.000000,,2013-11-20 21:22:00,
2013-11-20 14:53:00,15.0,11.0,-100.00,NE,39,4.0,7.0,82,0.00,,,0.00,205.000000,,2013-11-20 21:53:00,
2013-11-20 15:03:00,15.0,11.0,-100.00,NE,39,4.0,7.0,82,0.00,,,0.00,205.000000,,2013-11-20 22:03:00,
2013-11-20 15:13:00,15.0,11.0,-100.00,NE,39,4.0,7.0,82,0.00,,,0.00,205.000000,,2013-11-20 22:13:00,
2013-11-20 15:53:00,12.0,8.0,-100.00,ENE,67,4.0,8.0,82,0.00,,,0.00,153.000000,,2013-11-20 22:53:00,
2013-11-20 16:02:00,12.0,8.0,-100.00,ENE,67,4.0,8.0,82,0.00,,,0.00,153.000000,,2013-11-20 23:02:00,
2013-11-20 16:12:00,12.0,8.0,-100.00,ENE,67,4.0,8.0,82,0.00,,,0.00,153.000000,,2013-11-20 23:12:00,
2013-11-20 16:21:00,12.0,8.0,-100.00,ENE,67,4.0,8.0,82,0.00,,,0.00,153.000000,,2013-11-20 23:21:00,
2013-11-20 16:52:00,11.0,7.0,-100.00,East,92,2.0,7.0,83,0.00,,,0.00,58.000000,,2013-11-20 23:52:00,
2013-11-20 17:02:00,11.0,7.0,-100.00,East,92,2.0,7.0,83,0.00,,,0.00,58.000000,,2013-11-21 00:02:00,
2013-11-20 17:11:00,11.0,7.0,-100.00,East,92,2.0,7.0,83,0.00,,,0.00,58.000000,,2013-11-21 00:11:00,
2013-11-20 17:21:00,11.0,7.0,-100.00,East,92,2.0,7.0,83,0.00,,,0.00,58.000000,,2013-11-21 00:21:00,
2013-11-20 17:52:00,10.0,6.0,-100.00,ENE,57,5.0,7.0,85,0.00,,,0.00,3.000000,,2013-11-21 00:52:00,
2013-11-20 18:02:00,10.0,6.0,-100.00,ENE,57,5.0,7.0,85,0.00,,,0.00,3.000000,,2013-11-21 01:02:00,
2013-11-20 18:11:00,10.0,6.0,-100.00,ENE,57,5.0,7.0,85,0.00,,,0.00,3.000000,,2013-11-21 01:11:00,
2013-11-20 18:21:00,10.0,6.0,-100.00,ENE,57,5.0,7.0,85,0.00,,,0.00,3.000000,,2013-11-21 01:21:00,
2013-11-20 18:52:00,10.0,7.0,-100.00,ENE,69,1.0,6.0,86,0.00,,,0.00,0.000000,,2013-11-21 01:52:00,
2013-11-20 19:01:00,10.0,7.0,-100.00,ENE,69,1.0,6.0,86,0.00,,,0.00,0.000000,,2013-11-21 02:01:00,
2013-11-20 19:11:00,10.0,7.0,-100.00,ENE,69,1.0,6.0,86,0.00,,,0.00,0.000000,,2013-11-21 02:11:00,
2013-11-20 19:21:00,10.0,7.0,-100.00,ENE,69,1.0,6.0,86,0.00,,,0.00,0.000000,,2013-11-21 02:21:00,
2013-11-20 20:11:00,9.0,5.0,-100.00,NE,41,1.0,3.0,85,0.00,,,0.00,0.000000,,2013-11-21 03:11:00,
2013-11-20 20:21:00,9.0,5.0,-100.00,NE,41,1.0,3.0,85,0.00,,,0.00,0.000000,,2013-11-21 03:21:00,
2013-11-20 20:22:00,9.0,6.0,-100.00,East,100,2.0,4.0,86,0.00,,,0.00,0.000000,,2013-11-21 03:22:00,
2013-11-20 20:54:00,9.0,6.0,-100.00,East,100,2.0,4.0,86,0.00,,,0.00,0.000000,,2013-11-21 03:54:00,
2013-11-20 21:03:00,9.0,6.0,-100.00,East,100,2.0,4.0,86,0.00,,,0.00,0.000000,,2013-11-21 04:03:00,
2013-11-20 21:13:00,9.0,6.0,-100.00,East,100,2.0,4.0,86,0.00,,,0.00,0.000000,,2013-11-21 04:13:00,
2013-11-20 21:22:00,9.0,5.0,-100.00,East,94,0.0,3.0,85,0.00,,,0.00,0.000000,,2013-11-21 04:22:00,
2013-11-20 21:53:00,9.0,5.0,-100.00,East,94,0.0,3.0,85,0.00,,,0.00,0.000000,,2013-11-21 04:53:00,
2013-11-20 22:02:00,9.0,5.0,-100.00,East,94,0.0,3.0,85,0.00,,,0.00,0.000000,,2013-11-21 05:02:00,
2013-11-20 22:12:00,9.0,5.0,-100.00,East,94,0.0,3.0,85,0.00,,,0.00,0.000000,,2013-11-21 05:12:00,
2013-11-20 22:22:00,8.0,4.0,-100.00,ESE,122,1.0,3.0,85,0.00,,,0.00,0.000000,,2013-11-21 05:22:00,
2013-11-20 22:53:00,8.0,4.0,-100.00,ESE,122,1.0,3.0,85,0.00,,,0.00,0.000000,,2013-11-21 05:53:00,
2013-11-20 23:03:00,8.0,4.0,-100.00,ESE,122,1.0,3.0,85,0.00,,,0.00,0.000000,,2013-11-21 06:03:00,
2013-11-20 23:12:00,8.0,4.0,-100.00,ESE,122,1.0,3.0,85,0.00,,,0.00,0.000000,,2013-11-21 06:12:00,
2013-11-20 23:22:00,7.0,3.0,-100.00,NNW,332,2.0,3.0,84,0.00,,,0.00,0.000000,,2013-11-21 06:22:00,
2013-11-20 23:52:00,7.0,3.0,-100.00,NNW,332,2.0,3.0,84,0.00,,,0.00,0.000000,,2013-11-21 06:52:00,